STERLING GA US current weather conditions

sailwx.info

Wind from 165 at 2 knots gusting 5

Air temperature 18.3° C
Dewpoint 2.2° C

Last reported at 2019-Dec-05 21:04 UTC.
Time now 2019-Dec-05 21:59 UTC

Location: N 31°15' W 081°37'.
View on Google Maps.

See reports from other nearby stations

  
Tides and Currents Weather Stations Pressure Air Temp Water Temp Dewpoint Dewpoint Depression Visibility Wind Speed Wind Dir Waves Ship Positions
date/time (UTC)wind fromknots sea level pressurealtimeterstation pressurevisibilityair tempwater tempwave heightnotes
2019-Dec-05 21:04 165 2 gusting 5 18.3
2019-Dec-05 20:04 142 1 gusting 5 20.0
2019-Dec-05 19:04 243 0 gusting 5 20.6
2019-Dec-05 18:04 046 2 gusting 6 19.4
2019-Dec-05 17:04 016 1 gusting 6 18.9
2019-Dec-05 16:04 010 2 gusting 6 17.2
2019-Dec-05 15:04 339 1 gusting 6 13.9
2019-Dec-05 14:04 278 0 gusting 3 9.4
2019-Dec-05 13:04 256 0 gusting 3 4.4
2019-Dec-05 12:04 241 1 gusting 4 3.9
2019-Dec-05 11:04 245 0 gusting 5 6.1
2019-Dec-05 10:04 248 1 gusting 4 6.7
2019-Dec-05 09:04 245 1 gusting 4 6.1
2019-Dec-05 08:04 230 1 gusting 4 5.0
2019-Dec-05 07:04 250 1 gusting 4 6.1
2019-Dec-05 06:04 249 1 gusting 6 7.2
2019-Dec-05 05:04 260 1 gusting 5 6.7
2019-Dec-05 04:04 4.4
2019-Dec-05 03:04 5.6
2019-Dec-05 02:04 5.6
2019-Dec-05 01:04 6.1
2019-Dec-05 00:04 7.2
2019-Dec-04 23:04 10.6
2019-Dec-04 22:04 265 1 gusting 10 15.0
2019-Dec-04 21:04 262 5 gusting 13 16.7
2019-Dec-04 20:04 273 3 gusting 13 18.3
2019-Dec-04 19:04 272 3 gusting 14 18.3
2019-Dec-04 18:04 258 5 gusting 12 17.2
2019-Dec-04 17:04 266 4 gusting 11 15.6
2019-Dec-04 16:04 260 5 gusting 11 13.3
2019-Dec-04 15:04 280 3 gusting 13 10.6
2019-Dec-04 14:04 267 3 gusting 8 7.2
2019-Dec-04 13:04 239 1 gusting 5 3.3
2019-Dec-04 12:04 236 0 gusting 6 2.2
2019-Dec-04 11:04 240 0 gusting 5 2.2
2019-Dec-04 10:04 255 1 gusting 5 2.8
2019-Dec-04 09:04 238 0 gusting 4 2.8
2019-Dec-04 08:04 232 0 gusting 4 3.3
2019-Dec-04 07:04 3.3
2019-Dec-04 06:04 3.3
2019-Dec-04 05:04 211 1 gusting 3 3.3
2019-Dec-04 04:04 3.3
2019-Dec-04 03:04 3.3
2019-Dec-04 02:04 3.9
2019-Dec-04 01:04 214 0 gusting 1 2.8
2019-Dec-04 00:04 3.9
2019-Dec-03 23:04 6.1
2019-Dec-03 22:04 273 0 gusting 5 10.0
2019-Dec-03 21:04 275 2 gusting 8 11.7